Islamorada, Florida
Current Conditions -  °F | °C
As of 11:53 AM on Thursday 30 Oct 2014 (Local Time) from KMTH Reporting Station
Clear Clear  
Wind Chill: 81°   Ceiling: Unl
Heat Index: 84°   Visibility: 10mi
Dew Point: 69°   Wind: 3mph
Humidity: 67%   Direction: NA
Pressure: 29.97"   Gusts: NA
Location:  24.93°N, 80.63°W
Report Text: KMTH 301553Z AUTO VRB03KT 10SM CLR 27/21 A2997 RMK AO2 SLP149 T02720206
Loading
Personal Weather Stations






























Interactive Weather Map New forecast layout! Learn more

10-Day Weather Forecast

Advertisements
Track Severe Weather on mobile